This is the latest recevied weather packets stored in our database for station/object R1ZCU-14. If no packets are shown the sender has not sent any weather packets the latest 10 day(s).
| Time | Temp. | Humidity | Pressure | Rain* | Wind** | Luminosity | Snow |
|---|---|---|---|---|---|---|---|
| 1778244933 | 7.78° C | 34% | 1017.7 hPa | - | - | - | - |
| 1778244332 | 7.78° C | 34% | 1017.7 hPa | - | - | - | - |
| 1778243732 | 7.78° C | 33% | 1017.6 hPa | - | - | - | - |
| 1778243131 | 7.78° C | 32% | 1017.4 hPa | - | - | - | - |
| 1778242531 | 7.78° C | 32% | 1017.5 hPa | - | - | - | - |
| 1778241930 | 8.33° C | 32% | 1017.5 hPa | - | - | - | - |
| 1778241330 | 8.89° C | 34% | 1017.4 hPa | - | - | - | - |
| 1778240729 | 8.33° C | 36% | 1017.3 hPa | - | - | - | - |
| 1778240129 | 7.78° C | 34% | 1017.3 hPa | - | - | - | - |
| 1778239528 | 7.22° C | 36% | 1017.3 hPa | - | - | - | - |
| 1778238928 | 7.78° C | 36% | 1017.2 hPa | - | - | - | - |
| 1778238327 | 7.78° C | 37% | 1017.2 hPa | - | - | - | - |
| 1778237727 | 7.78° C | 38% | 1017.1 hPa | - | - | - | - |
| 1778237126 | 7.22° C | 41% | 1017.1 hPa | - | - | - | - |
| 1778236526 | 7.78° C | 39% | 1017 hPa | - | - | - | - |
| 1778235925 | 8.33° C | 38% | 1017 hPa | - | - | - | - |
| 1778235325 | 8.89° C | 38% | 1016.7 hPa | - | - | - | - |
| 1778234724 | 7.78° C | 40% | 1016.7 hPa | - | - | - | - |
| 1778234124 | 7.22° C | 43% | 1016.7 hPa | - | - | - | - |
| 1778233523 | 6.67° C | 43% | 1016.8 hPa | - | - | - | - |
| 1778232923 | 6.67° C | 45% | 1016.7 hPa | - | - | - | - |
| 1778232322 | 6.67° C | 46% | 1016.6 hPa | - | - | - | - |
| 1778231722 | 7.78° C | 42% | 1016.6 hPa | - | - | - | - |
| 1778231121 | 12.78° C | 32% | 1016.4 hPa | - | - | - | - |
| 1778230521 | 13.89° C | 29% | 1015.5 hPa | - | - | - | - |
* Rain since midnight (hover to see other rain measurements)
** Current wind speed in m/s (hover to see current wind gust speed)